Time;durP1;ratioP1;P1;durP2;ratioP2;P2;SDS_P1;SDS_P2;PMS_P1;PMS_P2;Temp;Humidity;BMP_temperature;BMP_pressure;BME280_temperature;BME280_humidity;BME280_pressure;Samples;Min_cycle;Max_cycle;Signal;HPM_P1;HPM_P2
2022/09/29 00:00:27;;;;;;;6.57;4.40;;;9.00;97.50;;;;;;5140499;27;20486;-45
2022/09/29 00:02:54;;;;;;;3.93;3.53;;;9.10;97.60;;;;;;5138650;27;20171;-47
2022/09/29 00:05:20;;;;;;;5.27;4.63;;;9.10;97.70;;;;;;5120844;27;20572;-45
2022/09/29 00:07:46;;;;;;;4.43;4.03;;;9.10;97.70;;;;;;5137511;27;20520;-46
2022/09/29 00:10:11;;;;;;;5.30;3.73;;;9.10;97.70;;;;;;5138083;27;20737;-47
2022/09/29 00:12:37;;;;;;;4.63;4.20;;;9.10;97.80;;;;;;5139207;27;20211;-45
2022/09/29 00:15:04;;;;;;;4.03;3.60;;;9.10;97.80;;;;;;5139979;27;20167;-46
2022/09/29 00:17:29;;;;;;;5.63;4.87;;;9.10;97.80;;;;;;5138749;27;20184;-46
2022/09/29 00:19:55;;;;;;;6.20;4.43;;;9.20;98.20;;;;;;5139939;27;20417;-45
2022/09/29 00:22:20;;;;;;;4.80;4.30;;;9.20;97.90;;;;;;5140231;27;20593;-45
2022/09/29 00:24:47;;;;;;;4.47;4.00;;;9.20;97.90;;;;;;5140405;27;20582;-46
2022/09/29 00:27:16;;;;;;;5.40;4.40;;;9.20;98.00;;;;;;5137807;27;20175;-45
2022/09/29 00:29:42;;;;;;;3.80;3.40;;;9.20;98.00;;;;;;5139916;27;20410;-45
2022/09/29 00:32:08;;;;;;;4.50;4.10;;;9.20;98.00;;;;;;5139589;27;20434;-45
2022/09/29 00:34:34;;;;;;;5.17;4.13;;;9.20;98.10;;;;;;5138594;27;20412;-47
2022/09/29 00:36:59;;;;;;;5.17;3.80;;;9.20;98.10;;;;;;5139968;27;20430;-44
2022/09/29 00:39:27;;;;;;;4.53;4.00;;;9.20;98.10;;;;;;5138844;27;20182;-45
2022/09/29 00:41:52;;;;;;;6.37;4.67;;;9.20;98.40;;;;;;5119558;27;20560;-45
2022/09/29 00:44:18;;;;;;;6.63;4.53;;;9.20;98.10;;;;;;5137957;27;20706;-45
2022/09/29 00:47:02;;;;;;;4.50;4.10;;;9.30;98.20;;;;;;5137345;27;20775;-44
2022/09/29 00:49:36;;;;;;;7.10;4.10;;;9.30;98.20;;;;;;5120440;27;20179;-44
2022/09/29 00:52:09;;;;;;;4.73;3.97;;;9.30;98.20;;;;;;5137734;27;20682;-45
2022/09/29 00:54:38;;;;;;;4.27;3.47;;;9.30;98.20;;;;;;5117163;28;20465;-44
2022/09/29 00:57:05;;;;;;;5.10;3.90;;;9.30;98.20;;;;;;5118684;28;20816;-45
2022/09/29 00:59:34;;;;;;;5.33;4.33;;;9.30;98.20;;;;;;5117844;28;20456;-46
2022/09/29 01:02:00;;;;;;;4.30;3.87;;;9.30;98.20;;;;;;5117757;28;20414;-45
2022/09/29 01:04:26;;;;;;;5.13;4.03;;;9.30;98.20;;;;;;5118040;28;20410;-44
2022/09/29 01:06:54;;;;;;;4.13;3.70;;;9.30;98.30;;;;;;5118096;28;20558;-44
2022/09/29 01:09:24;;;;;;;4.57;3.80;;;9.30;98.30;;;;;;5118599;28;20283;-45
2022/09/29 01:11:53;;;;;;;4.43;3.60;;;9.40;98.40;;;;;;5117084;28;20851;-47
2022/09/29 01:14:20;;;;;;;4.40;3.70;;;9.40;98.40;;;;;;5117885;28;20427;-45
2022/09/29 01:16:46;;;;;;;4.57;3.70;;;9.40;98.40;;;;;;5117538;28;20426;-47
2022/09/29 01:19:47;;;;;;;5.33;4.00;;;9.40;98.40;;;;;;5117826;28;20416;-44
2022/09/29 01:22:52;;;;;;;4.23;3.83;;;9.40;98.40;;;;;;5086607;28;20192;-45
2022/09/29 01:25:42;;;;;;;5.67;4.20;;;9.40;98.40;;;;;;5117736;28;20653;-44
2022/09/29 01:28:23;;;;;;;6.27;4.37;;;9.40;98.50;;;;;;5117445;28;20422;-43
2022/09/29 01:30:48;;;;;;;4.23;3.77;;;9.50;98.50;;;;;;5117280;28;20414;-45
2022/09/29 01:33:20;;;;;;;4.70;4.17;;;9.40;98.50;;;;;;5117020;28;20484;-44
2022/09/29 01:36:06;;;;;;;5.20;4.13;;;9.40;98.50;;;;;;5117202;28;20255;-44
2022/09/29 01:39:08;;;;;;;5.87;4.70;;;9.50;98.50;;;;;;5117604;28;20475;-45
2022/09/29 01:41:55;;;;;;;6.87;4.90;;;9.50;98.50;;;;;;5085736;28;20436;-45
2022/09/29 01:44:43;;;;;;;6.50;5.33;;;9.50;98.50;;;;;;5116426;28;20807;-45
2022/09/29 01:47:12;;;;;;;5.10;4.60;;;9.50;98.60;;;;;;5115734;28;20430;-45
2022/09/29 01:49:44;;;;;;;5.87;5.07;;;9.50;98.60;;;;;;5116768;28;20417;-46
2022/09/29 01:52:14;;;;;;;6.43;4.53;;;9.50;98.60;;;;;;5117228;28;20418;-46
2022/09/29 01:55:02;;;;;;;5.40;4.50;;;9.50;98.60;;;;;;5116152;28;20493;-46
2022/09/29 01:57:31;;;;;;;5.00;4.33;;;9.50;98.70;;;;;;5116615;28;20433;-45
2022/09/29 02:00:07;;;;;;;5.53;3.90;;;9.60;98.80;;;;;;5116807;28;20838;-45
2022/09/29 02:03:05;;;;;;;6.97;4.40;;;9.60;98.80;;;;;;5116143;28;20429;-47
2022/09/29 02:05:37;;;;;;;4.73;4.07;;;9.50;98.70;;;;;;5116889;28;20854;-45
2022/09/29 02:08:14;;;;;;;3.93;3.53;;;9.60;98.80;;;;;;5116996;28;20536;-48
2022/09/29 02:11:07;;;;;;;4.07;3.53;;;9.60;98.80;;;;;;5116585;28;20402;-48
2022/09/29 02:14:03;;;;;;;5.67;4.30;;;9.60;98.80;;;;;;5110576;28;20489;-47
2022/09/29 02:16:30;;;;;;;5.47;3.97;;;9.60;98.80;;;;;;5117489;28;20418;-45
2022/09/29 02:19:01;;;;;;;3.60;3.20;;;9.60;98.80;;;;;;5117332;28;20505;-45
2022/09/29 02:21:27;;;;;;;4.10;3.50;;;9.60;98.80;;;;;;5116195;28;20882;-47
2022/09/29 02:23:53;;;;;;;3.87;3.57;;;9.60;98.80;;;;;;5117171;28;20716;-46
2022/09/29 02:26:19;;;;;;;4.70;3.53;;;9.60;98.90;;;;;;5116209;28;20783;-46
2022/09/29 02:28:45;;;;;;;4.07;3.30;;;9.60;98.90;;;;;;5117063;28;20586;-46
2022/09/29 02:31:11;;;;;;;3.43;3.13;;;9.60;98.90;;;;;;5118879;28;20783;-48
2022/09/29 02:33:37;;;;;;;3.80;3.43;;;9.60;98.90;;;;;;5120590;28;20272;-46
2022/09/29 02:36:33;;;;;;;4.03;3.13;;;9.60;98.90;;;;;;5121077;28;20410;-46
2022/09/29 02:39:14;;;;;;;3.17;2.97;;;9.60;98.90;;;;;;5121042;28;20208;-47
2022/09/29 02:42:00;;;;;;;3.90;3.60;;;9.60;98.90;;;;;;5121295;28;20421;-48
2022/09/29 02:44:47;;;;;;;3.93;3.13;;;9.60;98.90;;;;;;5119866;28;20506;-44
2022/09/29 02:47:41;;;;;;;3.40;3.10;;;9.60;98.90;;;;;;5121226;28;20426;-46
2022/09/29 02:50:19;;;;;;;3.73;2.73;;;9.60;99.00;;;;;;5109836;28;20533;-45
2022/09/29 02:52:47;;;;;;;3.57;3.27;;;9.60;99.00;;;;;;5120996;28;20493;-46
2022/09/29 02:55:24;;;;;;;3.10;2.80;;;9.60;99.00;;;;;;5133358;27;20456;-43
2022/09/29 02:57:58;;;;;;;4.07;3.30;;;9.60;99.00;;;;;;5122363;27;20428;-46
2022/09/29 03:00:25;;;;;;;2.70;2.50;;;9.70;99.10;;;;;;5123201;27;20409;-47
2022/09/29 03:02:51;;;;;;;2.93;2.70;;;9.60;99.00;;;;;;5123180;27;20724;-44
2022/09/29 03:05:19;;;;;;;3.30;3.00;;;9.60;99.00;;;;;;5140457;27;20417;-46
2022/09/29 03:07:44;;;;;;;3.77;3.17;;;9.70;99.10;;;;;;5122537;27;20180;-45
2022/09/29 03:10:12;;;;;;;7.97;3.17;;;9.60;99.10;;;;;;5140312;27;20423;-44
2022/09/29 03:12:37;;;;;;;3.33;3.03;;;9.60;99.10;;;;;;5140155;27;20211;-44
2022/09/29 03:15:04;;;;;;;4.10;3.33;;;9.60;99.10;;;;;;5140571;27;20419;-45
2022/09/29 03:17:30;;;;;;;3.60;3.30;;;9.60;99.10;;;;;;5140092;27;20254;-47
2022/09/29 03:19:56;;;;;;;4.33;3.93;;;9.60;99.10;;;;;;5139922;27;20405;-44
2022/09/29 03:22:22;;;;;;;5.10;3.90;;;9.60;99.10;;;;;;5140006;27;20187;-44
2022/09/29 03:24:48;;;;;;;3.80;3.50;;;9.60;99.10;;;;;;5138844;27;20838;-44
2022/09/29 03:27:13;;;;;;;4.13;3.73;;;9.60;99.10;;;;;;5138007;27;20172;-43
2022/09/29 03:29:39;;;;;;;4.10;3.40;;;9.60;99.10;;;;;;5138406;27;20263;-48
2022/09/29 03:32:04;;;;;;;7.37;3.70;;;9.60;99.10;;;;;;5138532;27;20565;-47
2022/09/29 03:34:31;;;;;;;3.90;3.20;;;9.60;99.10;;;;;;5137312;27;20629;-44
2022/09/29 03:36:56;;;;;;;4.87;3.40;;;9.60;99.10;;;;;;5138223;27;20176;-45
2022/09/29 03:39:23;;;;;;;5.83;3.20;;;9.60;99.10;;;;;;5139395;27;20663;-46
2022/09/29 03:41:48;;;;;;;3.77;3.40;;;9.50;99.10;;;;;;5138943;27;20540;-45
2022/09/29 03:44:14;;;;;;;4.50;3.57;;;9.50;99.10;;;;;;5120615;27;20536;-45
2022/09/29 03:46:39;;;;;;;4.57;3.73;;;9.50;99.10;;;;;;5121257;27;20179;-47
2022/09/29 03:49:05;;;;;;;4.90;3.97;;;9.50;99.10;;;;;;5139795;27;20208;-44
2022/09/29 03:51:31;;;;;;;6.43;4.10;;;9.50;99.10;;;;;;5139206;27;20206;-44
2022/09/29 03:53:56;;;;;;;4.50;3.80;;;9.40;99.00;;;;;;5139509;27;20207;-45
2022/09/29 03:56:22;;;;;;;5.60;3.90;;;9.40;99.00;;;;;;5138135;27;20198;-45
2022/09/29 03:58:48;;;;;;;3.90;3.23;;;9.30;99.20;;;;;;5137262;27;20262;-44
2022/09/29 04:01:13;;;;;;;4.43;3.67;;;9.30;98.80;;;;;;5137001;27;20164;-45
2022/09/29 04:03:39;;;;;;;3.87;3.47;;;9.30;98.80;;;;;;5136472;27;20449;-46
2022/09/29 04:06:04;;;;;;;3.87;3.20;;;9.30;98.80;;;;;;5133941;27;20753;-46
2022/09/29 04:08:30;;;;;;;4.17;3.80;;;9.20;98.70;;;;;;5134851;27;20176;-43
2022/09/29 04:10:56;;;;;;;4.20;3.23;;;9.20;98.60;;;;;;5134250;27;20201;-47
2022/09/29 04:13:21;;;;;;;3.43;3.10;;;9.10;98.60;;;;;;5134154;27;20271;-44
2022/09/29 04:15:48;;;;;;;3.80;3.10;;;9.10;98.60;;;;;;5136624;27;20254;-45
2022/09/29 04:18:13;;;;;;;6.10;3.50;;;9.00;98.50;;;;;;5114393;28;20204;-44
2022/09/29 04:20:39;;;;;;;6.77;3.67;;;9.00;98.40;;;;;;5133574;27;20467;-46
2022/09/29 04:23:05;;;;;;;5.63;3.70;;;8.90;98.40;;;;;;5116317;28;20192;-44
2022/09/29 04:25:31;;;;;;;3.77;3.40;;;8.90;98.40;;;;;;5115295;28;20481;-48
2022/09/29 04:27:57;;;;;;;4.43;4.03;;;8.90;98.40;;;;;;5097735;28;20422;-44
2022/09/29 04:30:22;;;;;;;3.70;3.40;;;8.90;98.30;;;;;;5115877;28;20418;-45
2022/09/29 04:32:48;;;;;;;4.40;3.57;;;8.80;98.50;;;;;;5128660;27;20310;-45
2022/09/29 04:35:13;;;;;;;3.57;3.23;;;8.80;98.20;;;;;;5120452;27;20263;-46
2022/09/29 04:37:39;;;;;;;4.67;4.10;;;8.80;98.20;;;;;;5129932;27;20184;-44
2022/09/29 04:40:05;;;;;;;3.47;3.17;;;8.70;98.10;;;;;;5137404;27;20576;-44
2022/09/29 04:42:31;;;;;;;3.60;3.30;;;8.70;98.10;;;;;;5135731;27;20191;-46
2022/09/29 04:44:57;;;;;;;4.40;4.00;;;8.70;98.10;;;;;;5135469;27;20413;-46
2022/09/29 04:47:22;;;;;;;4.70;3.70;;;8.60;98.10;;;;;;5119289;27;20181;-46
2022/09/29 04:49:48;;;;;;;4.63;3.63;;;8.60;98.10;;;;;;5116573;28;20181;-46
2022/09/29 04:52:13;;;;;;;3.60;3.30;;;8.50;98.10;;;;;;5115638;28;20172;-45
2022/09/29 04:54:39;;;;;;;5.83;3.33;;;8.60;98.10;;;;;;5113915;28;20228;-46
2022/09/29 04:57:05;;;;;;;8.00;4.70;;;8.50;98.10;;;;;;5114586;28;20185;-46
2022/09/29 04:59:31;;;;;;;4.47;3.50;;;8.50;98.10;;;;;;5112948;28;20451;-44
2022/09/29 05:01:57;;;;;;;4.03;3.67;;;8.50;98.40;;;;;;5113558;28;20454;-45
2022/09/29 05:04:23;;;;;;;4.33;3.87;;;8.40;98.00;;;;;;5113505;28;20180;-43
2022/09/29 05:06:49;;;;;;;4.83;4.33;;;8.40;98.00;;;;;;5111900;28;20419;-42
2022/09/29 05:09:14;;;;;;;6.03;5.43;;;8.40;98.00;;;;;;5112697;28;20382;-42
2022/09/29 05:11:40;;;;;;;10.03;7.47;;;8.30;97.90;;;;;;5114397;27;20180;-47
2022/09/29 05:14:05;;;;;;;14.73;9.90;;;8.20;98.00;;;;;;5095702;28;20493;-44
2022/09/29 05:16:31;;;;;;;14.63;11.03;;;8.20;98.10;;;;;;5119200;27;20180;-44
2022/09/29 05:18:57;;;;;;;17.83;11.63;;;8.10;98.20;;;;;;5130925;27;20180;-43
2022/09/29 05:21:23;;;;;;;19.47;12.77;;;8.00;98.30;;;;;;5130285;27;20167;-45
2022/09/29 05:23:48;;;;;;;23.40;14.83;;;8.00;98.50;;;;;;5130212;27;20505;-45
2022/09/29 05:26:14;;;;;;;19.33;13.53;;;8.00;98.60;;;;;;5132057;27;20424;-43
2022/09/29 05:28:44;;;;;;;19.30;12.47;;;7.90;98.60;;;;;;5130745;27;20192;-42
2022/09/29 05:31:11;;;;;;;17.50;10.97;;;7.90;98.80;;;;;;5127882;27;20168;-42
2022/09/29 05:33:37;;;;;;;13.50;9.83;;;7.90;98.90;;;;;;5110889;27;20869;-44
2022/09/29 05:36:07;;;;;;;12.27;8.83;;;7.90;99.00;;;;;;5130981;27;20718;-44
2022/09/29 05:38:35;;;;;;;13.57;8.97;;;7.90;99.10;;;;;;5131747;27;20505;-45
2022/09/29 05:41:05;;;;;;;10.80;8.30;;;7.90;99.20;;;;;;5128313;27;20412;-43
2022/09/29 05:43:31;;;;;;;11.10;7.40;;;7.90;99.30;;;;;;5129049;27;20424;-46
2022/09/29 05:46:01;;;;;;;10.30;7.53;;;8.00;99.30;;;;;;5129997;27;20416;-42
2022/09/29 05:48:29;;;;;;;10.30;8.50;;;8.00;99.30;;;;;;5128380;27;20429;-47
2022/09/29 05:50:56;;;;;;;11.63;7.90;;;8.00;99.40;;;;;;5127226;27;20413;-44
2022/09/29 05:53:22;;;;;;;11.20;7.27;;;8.00;99.30;;;;;;5130476;27;20765;-44
2022/09/29 05:55:47;;;;;;;10.60;7.80;;;8.10;99.20;;;;;;5132537;27;20891;-45
2022/09/29 05:58:13;;;;;;;8.80;7.63;;;8.10;99.20;;;;;;5133040;27;20633;-46
2022/09/29 06:00:39;;;;;;;9.33;7.40;;;8.20;99.20;;;;;;5131320;27;20172;-45
2022/09/29 06:03:04;;;;;;;10.23;7.53;;;8.20;99.20;;;;;;5132620;27;20282;-43
2022/09/29 06:05:30;;;;;;;12.83;8.40;;;8.30;99.30;;;;;;5134670;27;20184;-46
2022/09/29 06:07:55;;;;;;;9.53;8.27;;;8.30;99.20;;;;;;5135796;27;20289;-43
2022/09/29 06:10:21;;;;;;;10.73;8.60;;;8.40;99.20;;;;;;5126113;27;20190;-44
2022/09/29 06:12:47;;;;;;;11.50;8.03;;;8.50;99.20;;;;;;5115140;28;20213;-43
2022/09/29 06:15:12;;;;;;;9.60;8.43;;;8.60;99.20;;;;;;5114137;28;20172;-43
2022/09/29 06:17:39;;;;;;;13.40;9.20;;;8.70;99.10;;;;;;5111101;28;20434;-44
2022/09/29 06:20:08;;;;;;;11.70;8.83;;;8.70;99.10;;;;;;5094507;28;20166;-43
2022/09/29 06:22:34;;;;;;;9.13;7.90;;;8.80;99.10;;;;;;5114011;28;20433;-43
2022/09/29 06:24:59;;;;;;;8.70;7.80;;;9.00;99.10;;;;;;5117444;28;20540;-45
2022/09/29 06:27:25;;;;;;;11.23;8.73;;;9.10;99.00;;;;;;5110489;28;20298;-45
2022/09/29 06:29:50;;;;;;;10.60;7.90;;;9.20;98.80;;;;;;5111919;28;20241;-44
2022/09/29 06:32:16;;;;;;;12.20;8.47;;;9.30;98.80;;;;;;5098023;28;20176;-46
2022/09/29 06:37:35;;;;;;;9.07;7.30;;;9.40;98.50;;;;;;5131383;28;20228;-45
2022/09/29 06:40:05;;;;;;;9.00;7.40;;;9.40;98.50;;;;;;5131492;28;20697;-44
2022/09/29 06:42:30;;;;;;;10.30;7.60;;;9.50;98.50;;;;;;5132981;28;20500;-45
2022/09/29 06:44:56;;;;;;;8.27;7.03;;;9.50;98.50;;;;;;5132733;28;20424;-44
2022/09/29 06:47:22;;;;;;;10.73;6.33;;;9.60;98.60;;;;;;5130647;28;20650;-43
2022/09/29 06:49:49;;;;;;;7.80;6.13;;;9.60;98.60;;;;;;5132707;28;20225;-43
2022/09/29 06:52:15;;;;;;;7.50;5.47;;;9.70;98.60;;;;;;5131354;28;21111;-42
2022/09/29 06:54:40;;;;;;;6.80;6.10;;;9.70;98.50;;;;;;5131396;28;20890;-47
2022/09/29 06:57:06;;;;;;;9.47;6.30;;;9.80;98.50;;;;;;5129833;28;20266;-45
2022/09/29 06:59:31;;;;;;;10.60;5.20;;;9.90;98.50;;;;;;5132483;28;20316;-44
2022/09/29 07:01:57;;;;;;;8.13;6.57;;;10.00;97.80;;;;;;5131950;28;20182;-44
2022/09/29 07:04:23;;;;;;;15.67;6.80;;;10.10;97.80;;;;;;5115319;28;20187;-44
2022/09/29 07:06:49;;;;;;;8.00;5.90;;;10.20;97.70;;;;;;5116540;28;20234;-47
2022/09/29 07:09:15;;;;;;;11.73;7.20;;;10.40;97.70;;;;;;5134286;28;20196;-44
2022/09/29 07:11:45;;;;;;;6.83;6.13;;;10.50;97.60;;;;;;5133720;28;20183;-43
2022/09/29 07:14:15;;;;;;;7.73;6.47;;;10.70;97.60;;;;;;5131910;28;20468;-43
2022/09/29 07:16:41;;;;;;;8.40;6.73;;;10.80;97.40;;;;;;5117817;27;20445;-43
2022/09/29 07:19:07;;;;;;;8.67;6.80;;;10.90;97.20;;;;;;5135622;27;21215;-42
2022/09/29 07:21:33;;;;;;;7.30;6.50;;;10.90;97.10;;;;;;5125309;27;20459;-45
2022/09/29 07:23:59;;;;;;;7.13;6.47;;;11.00;97.00;;;;;;5126053;27;20437;-45
2022/09/29 07:26:25;;;;;;;9.70;6.10;;;11.10;97.00;;;;;;5118996;27;20180;-44
2022/09/29 07:28:51;;;;;;;8.50;6.33;;;11.10;96.90;;;;;;5117774;28;20475;-48
2022/09/29 07:31:18;;;;;;;7.23;6.30;;;11.10;96.80;;;;;;5117391;28;20192;-46
2022/09/29 07:33:46;;;;;;;7.20;6.50;;;11.20;96.80;;;;;;5116037;28;20207;-48
2022/09/29 07:36:12;;;;;;;7.30;6.40;;;11.30;96.80;;;;;;5115339;28;20486;-45
2022/09/29 07:38:38;;;;;;;6.20;5.60;;;11.30;96.80;;;;;;5116591;28;20474;-43
2022/09/29 07:41:06;;;;;;;9.70;6.43;;;11.40;96.90;;;;;;5113818;28;20803;-45
2022/09/29 07:43:32;;;;;;;9.27;7.13;;;11.50;96.90;;;;;;5099392;28;20572;-45
2022/09/29 07:46:01;;;;;;;6.30;5.70;;;11.70;96.90;;;;;;5115649;28;20442;-43
2022/09/29 07:48:27;;;;;;;7.40;6.50;;;11.90;96.90;;;;;;5113812;28;20255;-45
2022/09/29 07:51:00;;;;;;;3.53;1.40;;;12.10;96.80;;;;;;5094661;28;20509;-47
2022/09/29 07:53:26;;;;;;;5.23;1.93;;;12.70;99.90;;;;;;5112992;28;20537;-47
2022/09/29 07:55:52;;;;;;;3.47;2.30;;;13.50;99.90;;;;;;5111650;28;20942;-43
2022/09/29 07:58:17;;;;;;;5.93;3.17;;;14.10;99.90;;;;;;5108941;28;20411;-44
2022/09/29 08:00:43;;;;;;;5.77;4.00;;;14.50;99.90;;;;;;5113678;28;20178;-43
2022/09/29 08:03:09;;;;;;;4.73;3.83;;;14.80;99.30;;;;;;5113047;28;20219;-45
2022/09/29 08:05:35;;;;;;;4.80;4.13;;;14.90;97.90;;;;;;5113664;28;20195;-46
2022/09/29 08:08:04;;;;;;;4.80;3.83;;;14.90;96.90;;;;;;5113433;28;20410;-42
2022/09/29 08:10:31;;;;;;;4.87;4.13;;;14.90;96.40;;;;;;5112895;28;20689;-43
2022/09/29 08:12:57;;;;;;;5.50;4.03;;;14.90;95.90;;;;;;5130342;27;20536;-43
2022/09/29 08:15:23;;;;;;;4.17;3.80;;;14.90;95.30;;;;;;5134524;27;20445;-42
2022/09/29 08:17:52;;;;;;;4.97;3.40;;;14.90;94.70;;;;;;5135762;27;20898;-43
2022/09/29 08:20:18;;;;;;;3.67;3.37;;;14.90;94.10;;;;;;5133151;27;20826;-42
2022/09/29 08:22:43;;;;;;;5.00;3.27;;;15.00;93.60;;;;;;5134170;27;20422;-46
2022/09/29 08:25:09;;;;;;;3.27;2.97;;;15.10;93.20;;;;;;5134288;27;20202;-46
2022/09/29 08:27:35;;;;;;;3.10;2.73;;;15.30;93.00;;;;;;5133994;27;20203;-42
2022/09/29 08:30:01;;;;;;;3.30;3.00;;;15.60;92.60;;;;;;5133102;27;20409;-42
2022/09/29 08:32:27;;;;;;;4.43;2.93;;;15.80;92.20;;;;;;5135549;27;20215;-46
2022/09/29 08:34:53;;;;;;;3.27;2.90;;;16.20;91.80;;;;;;5136431;27;20178;-41
2022/09/29 08:37:18;;;;;;;4.00;2.50;;;16.50;91.10;;;;;;5135868;27;20412;-40
2022/09/29 08:39:44;;;;;;;3.27;2.90;;;16.90;90.50;;;;;;5134460;27;20692;-45
2022/09/29 08:42:39;;;;;;;3.10;2.80;;;17.30;89.50;;;;;;5133400;27;20180;-43
2022/09/29 08:45:10;;;;;;;3.63;2.83;;;17.80;87.50;;;;;;5113471;27;20337;-44
2022/09/29 08:47:45;;;;;;;3.40;2.80;;;18.10;85.60;;;;;;5132621;27;20624;-43
2022/09/29 08:50:25;;;;;;;3.07;2.33;;;18.30;84.60;;;;;;5116792;27;20422;-42
2022/09/29 08:52:54;;;;;;;2.87;2.60;;;18.50;83.40;;;;;;5117047;27;20465;-41
2022/09/29 08:55:21;;;;;;;3.20;2.10;;;18.90;81.90;;;;;;5117501;27;20467;-40
2022/09/29 08:57:50;;;;;;;2.70;1.93;;;19.10;80.20;;;;;;5116346;27;20774;-43
2022/09/29 09:00:17;;;;;;;2.80;1.87;;;19.30;79.80;;;;;;5118618;27;20423;-41
2022/09/29 09:03:08;;;;;;;3.00;1.93;;;19.40;78.40;;;;;;5118838;27;20422;-43
2022/09/29 09:05:55;;;;;;;2.30;2.10;;;19.60;77.70;;;;;;5098553;28;20441;-43
2022/09/29 09:09:03;;;;;;;3.67;1.80;;;19.80;76.70;;;;;;5116422;28;20519;-42
2022/09/29 09:11:43;;;;;;;2.20;1.67;;;19.90;76.00;;;;;;5051753;28;20425;-45
2022/09/29 09:14:12;;;;;;;1.90;1.70;;;19.90;73.70;;;;;;5113052;28;20478;-45
2022/09/29 09:16:59;;;;;;;2.57;1.60;;;19.80;72.40;;;;;;5096662;28;20707;-43
2022/09/29 09:20:05;;;;;;;2.80;1.80;;;19.70;71.80;;;;;;5096878;28;20491;-44
2022/09/29 09:22:44;;;;;;;2.73;1.70;;;19.50;71.00;;;;;;5076316;28;20849;-42
2022/09/29 09:25:27;;;;;;;2.97;1.93;;;19.30;71.10;;;;;;5097651;28;20499;-44
2022/09/29 09:28:15;;;;;;;2.90;1.97;;;19.30;71.70;;;;;;5097105;28;20436;-44
2022/09/29 09:30:54;;;;;;;3.10;2.30;;;19.30;71.60;;;;;;5098883;28;20765;-44
2022/09/29 09:33:43;;;;;;;4.33;2.37;;;19.40;71.40;;;;;;5115900;27;20999;-44
2022/09/29 09:36:18;;;;;;;1.90;1.50;;;19.40;70.10;;;;;;5105220;28;20923;-45
2022/09/29 09:38:49;;;;;;;3.23;1.90;;;19.40;69.90;;;;;;5096416;28;21033;-44
2022/09/29 09:41:20;;;;;;;3.10;2.40;;;19.40;69.30;;;;;;5128760;27;20442;-43
2022/09/29 09:43:50;;;;;;;2.87;1.83;;;19.40;68.90;;;;;;5114271;27;21064;-45
2022/09/29 09:46:33;;;;;;;2.10;1.63;;;19.60;69.00;;;;;;5115405;27;20432;-45
2022/09/29 09:49:34;;;;;;;3.00;2.10;;;20.00;68.50;;;;;;5115687;27;20702;-48
2022/09/29 09:52:09;;;;;;;3.13;1.87;;;20.50;67.80;;;;;;5099711;27;20532;-44
2022/09/29 09:54:39;;;;;;;3.20;1.87;;;21.10;66.70;;;;;;5132979;27;20781;-43
2022/09/29 09:57:26;;;;;;;2.20;2.00;;;21.60;65.10;;;;;;5116025;27;20425;-45
2022/09/29 10:00:07;;;;;;;3.77;2.43;;;21.80;62.90;;;;;;5135339;27;20443;-44
2022/09/29 10:02:33;;;;;;;2.40;1.87;;;21.80;60.80;;;;;;5134561;27;20485;-42
2022/09/29 10:05:00;;;;;;;3.13;1.73;;;21.70;59.70;;;;;;5110301;28;20444;-42
2022/09/29 10:07:30;;;;;;;4.13;2.90;;;21.60;59.80;;;;;;5113982;27;20449;-43
2022/09/29 10:09:57;;;;;;;7.40;5.00;;;21.60;59.80;;;;;;5104168;28;20628;-44
2022/09/29 10:12:24;;;;;;;6.60;5.50;;;21.50;60.00;;;;;;5135349;28;20442;-45
2022/09/29 10:14:58;;;;;;;8.40;5.50;;;21.50;60.30;;;;;;5136190;28;20415;-44
2022/09/29 10:17:28;;;;;;;4.03;3.63;;;21.60;60.10;;;;;;5114633;28;20441;-45
2022/09/29 10:19:58;;;;;;;2.90;2.10;;;21.80;60.50;;;;;;5134151;28;20423;-45
2022/09/29 10:22:25;;;;;;;4.97;2.43;;;22.40;63.60;;;;;;5133972;28;20417;-46
2022/09/29 10:25:07;;;;;;;2.10;1.63;;;23.00;63.70;;;;;;5133507;28;20443;-44
2022/09/29 10:27:33;;;;;;;3.70;1.70;;;23.60;61.00;;;;;;5117153;28;20708;-43
2022/09/29 10:29:59;;;;;;;2.70;1.43;;;24.10;59.50;;;;;;5116342;28;20407;-43
2022/09/29 10:32:35;;;;;;;3.70;1.80;;;24.60;58.00;;;;;;5116199;28;20413;-43
2022/09/29 10:35:35;;;;;;;2.77;2.03;;;24.60;56.70;;;;;;5113405;28;20922;-45
2022/09/29 10:38:17;;;;;;;3.40;1.87;;;24.60;56.60;;;;;;5098539;28;20779;-44
2022/09/29 10:40:57;;;;;;;2.00;1.60;;;24.60;56.90;;;;;;5115731;28;20404;-46
2022/09/29 10:43:34;;;;;;;3.67;2.00;;;24.60;56.50;;;;;;5112910;28;20883;-46
2022/09/29 10:46:00;;;;;;;3.07;1.70;;;24.60;55.00;;;;;;5131160;28;20427;-44
2022/09/29 10:48:26;;;;;;;3.10;1.90;;;24.60;53.70;;;;;;5115060;28;20543;-44
2022/09/29 10:51:03;;;;;;;2.90;1.60;;;24.60;52.90;;;;;;5111830;27;20646;-42
2022/09/29 10:53:35;;;;;;;2.70;1.87;;;24.60;52.90;;;;;;5135844;27;20551;-43
2022/09/29 10:56:16;;;;;;;3.53;1.80;;;24.50;52.00;;;;;;5118684;27;20461;-44
2022/09/29 10:58:50;;;;;;;3.77;2.10;;;24.50;51.80;;;;;;5135394;27;20586;-44
2022/09/29 11:01:17;;;;;;;4.20;2.17;;;24.60;51.80;;;;;;5120495;27;20460;-44
2022/09/29 11:03:51;;;;;;;2.87;1.90;;;24.70;51.60;;;;;;5135060;27;20519;-45
2022/09/29 11:06:25;;;;;;;2.03;1.83;;;24.70;50.50;;;;;;5117652;27;20432;-42
2022/09/29 11:09:00;;;;;;;3.20;1.77;;;24.70;49.50;;;;;;5135336;27;20433;-45
2022/09/29 11:11:27;;;;;;;2.80;1.70;;;24.70;48.10;;;;;;5113071;27;20424;-43
2022/09/29 11:13:54;;;;;;;2.40;1.70;;;24.90;48.00;;;;;;5116958;27;20461;-44
2022/09/29 11:16:34;;;;;;;2.90;1.83;;;25.20;47.80;;;;;;5136409;27;20758;-45
2022/09/29 11:19:02;;;;;;;3.87;2.27;;;25.90;47.70;;;;;;5135275;27;20857;-44
2022/09/29 11:21:28;;;;;;;2.63;2.10;;;26.80;47.60;;;;;;5134053;27;20404;-44
2022/09/29 11:24:11;;;;;;;3.03;1.77;;;27.60;46.20;;;;;;5135607;27;20543;-43
2022/09/29 11:26:59;;;;;;;2.03;1.83;;;28.60;44.40;;;;;;5117704;27;20210;-44
2022/09/29 11:29:47;;;;;;;3.30;2.03;;;29.10;43.00;;;;;;5134248;27;20406;-43
2022/09/29 11:32:23;;;;;;;2.83;1.97;;;29.00;42.10;;;;;;5134996;27;20896;-44
2022/09/29 11:34:58;;;;;;;4.73;1.97;;;28.60;41.40;;;;;;5134938;27;20762;-43
2022/09/29 11:37:57;;;;;;;3.93;1.97;;;28.20;41.90;;;;;;5135716;27;20825;-43
2022/09/29 11:40:50;;;;;;;3.93;1.87;;;27.90;42.00;;;;;;5136492;27;20409;-46
2022/09/29 11:43:44;;;;;;;2.67;2.07;;;27.70;42.30;;;;;;5123881;27;20425;-45
2022/09/29 11:46:44;;;;;;;4.17;2.03;;;27.60;42.80;;;;;;5134799;27;20379;-43
2022/09/29 11:49:55;;;;;;;3.80;1.90;;;27.50;43.70;;;;;;5118284;27;20392;-44
2022/09/29 11:52:55;;;;;;;3.40;2.43;;;27.40;43.20;;;;;;5137069;27;20488;-42
2022/09/29 11:55:59;;;;;;;4.70;2.23;;;27.00;43.60;;;;;;5116204;28;20438;-45
2022/09/29 11:58:40;;;;;;;2.53;1.53;;;26.80;43.30;;;;;;5113027;28;20426;-42
2022/09/29 12:01:08;;;;;;;3.10;1.87;;;26.70;42.30;;;;;;5117505;28;20490;-42
2022/09/29 12:03:44;;;;;;;2.83;1.60;;;26.70;42.90;;;;;;5115420;28;20414;-43
2022/09/29 12:06:30;;;;;;;2.53;1.60;;;26.50;43.20;;;;;;5115515;28;20462;-44
2022/09/29 12:09:14;;;;;;;2.73;1.87;;;26.50;43.20;;;;;;5115422;28;20681;-47
2022/09/29 12:12:11;;;;;;;2.20;1.70;;;26.50;43.60;;;;;;5116115;28;20410;-44
2022/09/29 12:15:06;;;;;;;3.43;1.80;;;26.50;44.10;;;;;;5115554;28;20772;-44
2022/09/29 12:17:35;;;;;;;2.40;1.63;;;26.40;44.10;;;;;;5116381;28;20708;-45
2022/09/29 12:20:06;;;;;;;5.27;3.50;;;26.40;43.60;;;;;;5115559;28;20408;-45
2022/09/29 12:22:32;;;;;;;2.30;1.70;;;26.40;43.70;;;;;;5111685;28;20770;-42
2022/09/29 12:24:58;;;;;;;3.13;2.43;;;26.40;43.30;;;;;;5096313;28;20404;-45
2022/09/29 12:27:31;;;;;;;2.43;1.70;;;26.30;43.00;;;;;;5094617;28;20417;-43
2022/09/29 12:29:57;;;;;;;2.30;1.60;;;26.50;42.30;;;;;;5093514;28;20401;-44
2022/09/29 12:32:36;;;;;;;2.40;1.63;;;26.80;41.60;;;;;;5076574;28;20481;-44
2022/09/29 12:35:22;;;;;;;2.07;1.77;;;27.20;40.90;;;;;;5095253;28;20386;-43
2022/09/29 12:37:56;;;;;;;2.90;1.60;;;27.40;40.80;;;;;;5096432;28;20479;-45
2022/09/29 12:40:33;;;;;;;4.37;1.97;;;27.60;41.50;;;;;;5094634;28;20886;-46
2022/09/29 12:43:01;;;;;;;3.20;1.77;;;27.80;41.70;;;;;;5095816;28;20440;-45
2022/09/29 12:45:35;;;;;;;3.00;1.90;;;28.10;41.70;;;;;;5096361;28;20815;-43
2022/09/29 12:48:19;;;;;;;4.13;2.20;;;27.90;41.20;;;;;;5095494;28;21061;-43
2022/09/29 12:51:11;;;;;;;2.90;1.80;;;27.80;40.90;;;;;;5095613;28;20414;-42
2022/09/29 12:54:15;;;;;;;2.20;1.60;;;27.60;40.70;;;;;;5095459;28;20896;-46
2022/09/29 12:57:16;;;;;;;2.80;2.03;;;27.10;40.50;;;;;;5097501;28;20688;-43
2022/09/29 13:00:17;;;;;;;2.23;1.77;;;26.80;40.90;;;;;;5094918;28;20413;-43
2022/09/29 13:03:20;;;;;;;4.67;1.97;;;26.60;40.50;;;;;;5068454;28;20431;-43
2022/09/29 13:06:22;;;;;;;5.60;2.60;;;26.10;41.80;;;;;;5115322;28;20446;-44
2022/09/29 13:09:26;;;;;;;3.43;1.43;;;26.00;41.80;;;;;;5116285;28;20391;-42
2022/09/29 13:12:05;;;;;;;5.40;4.50;;;26.00;40.70;;;;;;5115600;28;20994;-42
2022/09/29 13:14:55;;;;;;;5.30;4.57;;;25.90;41.50;;;;;;5114582;28;20439;-42
2022/09/29 13:17:29;;;;;;;5.27;3.33;;;25.80;42.20;;;;;;5116213;28;20860;-43
2022/09/29 13:20:56;;;;;;;3.10;2.30;;;25.80;42.40;;;;;;5117393;28;20408;-43